HECA/CAI METAR and TAF weather

Enter ICAO airport designator
Station Type Date Time Source
HECA METAR 2022/01/28 04:30 UTC NOAA

HECA 280430Z 21004KT 6000 SCT025 09/05 Q1025 NOSIG


Station Type Date Time Source
HECA Decoded METAR 2022/01/28 04:30 UTC NOAA

Cairo Airport, Egypt (HECA) 30-08N 031-24E 74M
Jan 27, 2022 - 11:30 PM EST / 2022.01.28 0430 UTC
Wind: from the SSW (210 degrees) at 5 MPH (4 KT):0
Visibility: 3 mile(s):0
Sky conditions: partly cloudy
Temperature: 48 F (9 C)
Dew Point: 41 F (5 C)
Relative Humidity: 75%
Pressure (altimeter): 30.27 in. Hg (1025 hPa)
ob: HECA 280430Z 21004KT 6000 SCT025 09/05 Q1025 NOSIG
cycle: 4

Station Type Date Time Source
HECA TAF 2022/01/28 06:30 UTC NOAA

TAF HECA 280500Z 2806/2912 27008KT 9999 SCT025
TEMPO 2806/2808 VRB03KT 4000 BR

Example: see airport list